sensor_id;sensor_type;location;lat;lon;timestamp;temperature;humidity
14252;DHT22;7210;51.502;10.722;2023-05-01T00:00:07;2.40;99.90
14252;DHT22;7210;51.502;10.722;2023-05-01T00:02:38;2.30;99.90
14252;DHT22;7210;51.502;10.722;2023-05-01T00:05:06;2.20;99.90
14252;DHT22;7210;51.502;10.722;2023-05-01T00:07:34;2.20;99.90
14252;DHT22;7210;51.502;10.722;2023-05-01T00:10:01;2.20;99.90
14252;DHT22;7210;51.502;10.722;2023-05-01T00:12:29;2.10;99.90
14252;DHT22;7210;51.502;10.722;2023-05-01T00:14:56;2.00;99.90
14252;DHT22;7210;51.502;10.722;2023-05-01T00:17:23;2.20;99.90
14252;DHT22;7210;51.502;10.722;2023-05-01T00:19:52;2.20;99.90
14252;DHT22;7210;51.502;10.722;2023-05-01T00:22:19;2.20;99.90
14252;DHT22;7210;51.502;10.722;2023-05-01T00:24:46;2.20;99.90
14252;DHT22;7210;51.502;10.722;2023-05-01T00:27:14;2.20;99.90
14252;DHT22;7210;51.502;10.722;2023-05-01T00:29:42;2.10;99.90
14252;DHT22;7210;51.502;10.722;2023-05-01T00:32:09;2.10;99.90
14252;DHT22;7210;51.502;10.722;2023-05-01T00:34:36;2.10;99.90
14252;DHT22;7210;51.502;10.722;2023-05-01T00:37:04;2.20;99.90
14252;DHT22;7210;51.502;10.722;2023-05-01T00:39:32;2.20;99.90
14252;DHT22;7210;51.502;10.722;2023-05-01T00:41:59;2.20;99.90
14252;DHT22;7210;51.502;10.722;2023-05-01T00:44:26;2.10;99.90
14252;DHT22;7210;51.502;10.722;2023-05-01T00:46:53;2.10;99.90
14252;DHT22;7210;51.502;10.722;2023-05-01T00:49:25;2.10;99.90
14252;DHT22;7210;51.502;10.722;2023-05-01T00:51:52;2.00;99.90
14252;DHT22;7210;51.502;10.722;2023-05-01T00:54:24;1.90;99.90
14252;DHT22;7210;51.502;10.722;2023-05-01T00:56:53;1.80;99.90
14252;DHT22;7210;51.502;10.722;2023-05-01T00:59:21;1.80;99.90
14252;DHT22;7210;51.502;10.722;2023-05-01T01:01:49;1.70;99.90
14252;DHT22;7210;51.502;10.722;2023-05-01T01:04:16;1.70;99.90
14252;DHT22;7210;51.502;10.722;2023-05-01T01:06:53;1.60;99.90
14252;DHT22;7210;51.502;10.722;2023-05-01T01:09:34;1.60;99.90
14252;DHT22;7210;51.502;10.722;2023-05-01T01:12:12;1.60;99.90
14252;DHT22;7210;51.502;10.722;2023-05-01T01:14:49;1.60;99.90
14252;DHT22;7210;51.502;10.722;2023-05-01T01:17:31;1.50;99.90
14252;DHT22;7210;51.502;10.722;2023-05-01T01:20:27;1.50;99.90
14252;DHT22;7210;51.502;10.722;2023-05-01T01:26:26;1.50;99.90
14252;DHT22;7210;51.502;10.722;2023-05-01T01:29:37;1.50;99.90
14252;DHT22;7210;51.502;10.722;2023-05-01T01:32:25;1.60;99.90
14252;DHT22;7210;51.502;10.722;2023-05-01T01:35:11;1.70;99.90
14252;DHT22;7210;51.502;10.722;2023-05-01T01:37:49;1.60;99.90
14252;DHT22;7210;51.502;10.722;2023-05-01T01:40:24;1.70;99.90
14252;DHT22;7210;51.502;10.722;2023-05-01T01:43:02;1.70;99.90
14252;DHT22;7210;51.502;10.722;2023-05-01T01:45:36;1.60;99.90
14252;DHT22;7210;51.502;10.722;2023-05-01T01:48:09;1.60;99.90
14252;DHT22;7210;51.502;10.722;2023-05-01T01:50:41;1.60;99.90
14252;DHT22;7210;51.502;10.722;2023-05-01T01:53:13;1.60;99.90
14252;DHT22;7210;51.502;10.722;2023-05-01T01:55:46;1.60;99.90
14252;DHT22;7210;51.502;10.722;2023-05-01T01:58:15;1.50;99.90
14252;DHT22;7210;51.502;10.722;2023-05-01T02:00:52;1.50;99.90
14252;DHT22;7210;51.502;10.722;2023-05-01T02:03:21;1.50;99.90
14252;DHT22;7210;51.502;10.722;2023-05-01T02:05:52;1.60;99.90
14252;DHT22;7210;51.502;10.722;2023-05-01T02:08:20;1.60;99.90
14252;DHT22;7210;51.502;10.722;2023-05-01T02:10:51;1.60;99.90
14252;DHT22;7210;51.502;10.722;2023-05-01T02:16:15;1.60;99.90
14252;DHT22;7210;51.502;10.722;2023-05-01T02:18:45;1.50;99.90
14252;DHT22;7210;51.502;10.722;2023-05-01T02:21:14;1.50;99.90
14252;DHT22;7210;51.502;10.722;2023-05-01T02:23:42;1.40;99.90
14252;DHT22;7210;51.502;10.722;2023-05-01T02:26:14;1.40;99.90
14252;DHT22;7210;51.502;10.722;2023-05-01T02:28:42;1.30;99.90
14252;DHT22;7210;51.502;10.722;2023-05-01T02:31:12;1.30;99.90
14252;DHT22;7210;51.502;10.722;2023-05-01T02:33:39;1.40;99.90
14252;DHT22;7210;51.502;10.722;2023-05-01T02:36:07;1.40;99.90
14252;DHT22;7210;51.502;10.722;2023-05-01T02:38:36;1.50;99.90
14252;DHT22;7210;51.502;10.722;2023-05-01T02:41:05;1.50;99.90
14252;DHT22;7210;51.502;10.722;2023-05-01T02:43:36;1.50;99.90
14252;DHT22;7210;51.502;10.722;2023-05-01T02:46:09;1.40;99.90
14252;DHT22;7210;51.502;10.722;2023-05-01T02:48:39;1.40;99.90
14252;DHT22;7210;51.502;10.722;2023-05-01T02:51:08;1.30;99.90
14252;DHT22;7210;51.502;10.722;2023-05-01T02:53:38;1.40;99.90
14252;DHT22;7210;51.502;10.722;2023-05-01T02:56:15;1.50;99.90
14252;DHT22;7210;51.502;10.722;2023-05-01T02:58:43;1.50;99.90
14252;DHT22;7210;51.502;10.722;2023-05-01T03:01:10;1.50;99.90
14252;DHT22;7210;51.502;10.722;2023-05-01T03:03:38;1.40;99.90
14252;DHT22;7210;51.502;10.722;2023-05-01T03:06:05;1.40;99.90
14252;DHT22;7210;51.502;10.722;2023-05-01T03:08:32;1.40;99.90
14252;DHT22;7210;51.502;10.722;2023-05-01T03:11:05;1.40;99.90
14252;DHT22;7210;51.502;10.722;2023-05-01T03:13:32;1.40;99.90
14252;DHT22;7210;51.502;10.722;2023-05-01T03:16:00;1.40;99.90
14252;DHT22;7210;51.502;10.722;2023-05-01T03:18:29;1.40;99.90
14252;DHT22;7210;51.502;10.722;2023-05-01T03:20:56;1.30;99.90
14252;DHT22;7210;51.502;10.722;2023-05-01T03:23:25;1.30;99.90
14252;DHT22;7210;51.502;10.722;2023-05-01T03:25:52;1.20;99.90
14252;DHT22;7210;51.502;10.722;2023-05-01T03:28:22;1.20;99.90
14252;DHT22;7210;51.502;10.722;2023-05-01T03:30:52;1.10;99.90
14252;DHT22;7210;51.502;10.722;2023-05-01T03:33:19;1.10;99.90
14252;DHT22;7210;51.502;10.722;2023-05-01T03:35:46;1.10;99.90
14252;DHT22;7210;51.502;10.722;2023-05-01T03:38:14;1.10;99.90
14252;DHT22;7210;51.502;10.722;2023-05-01T03:41:00;1.00;99.90
14252;DHT22;7210;51.502;10.722;2023-05-01T03:43:54;1.10;99.90
14252;DHT22;7210;51.502;10.722;2023-05-01T03:46:36;1.20;99.90
14252;DHT22;7210;51.502;10.722;2023-05-01T03:49:04;1.20;99.90
14252;DHT22;7210;51.502;10.722;2023-05-01T03:51:38;1.20;99.90
14252;DHT22;7210;51.502;10.722;2023-05-01T03:54:05;1.20;99.90
14252;DHT22;7210;51.502;10.722;2023-05-01T03:56:46;1.10;99.90
14252;DHT22;7210;51.502;10.722;2023-05-01T03:59:15;1.10;99.90
14252;DHT22;7210;51.502;10.722;2023-05-01T04:01:42;1.00;99.90
14252;DHT22;7210;51.502;10.722;2023-05-01T04:04:09;1.10;99.90
14252;DHT22;7210;51.502;10.722;2023-05-01T04:06:40;1.20;99.90
14252;DHT22;7210;51.502;10.722;2023-05-01T04:09:07;1.20;99.90
14252;DHT22;7210;51.502;10.722;2023-05-01T04:11:34;1.20;99.90
14252;DHT22;7210;51.502;10.722;2023-05-01T04:14:01;1.20;99.90
14252;DHT22;7210;51.502;10.722;2023-05-01T04:16:30;1.20;99.90
14252;DHT22;7210;51.502;10.722;2023-05-01T04:19:00;1.30;99.90
14252;DHT22;7210;51.502;10.722;2023-05-01T04:21:29;1.20;99.90
14252;DHT22;7210;51.502;10.722;2023-05-01T04:23:56;1.20;99.90
14252;DHT22;7210;51.502;10.722;2023-05-01T04:26:23;1.30;99.90
14252;DHT22;7210;51.502;10.722;2023-05-01T04:28:51;1.30;99.90
14252;DHT22;7210;51.502;10.722;2023-05-01T04:31:22;1.30;99.90
14252;DHT22;7210;51.502;10.722;2023-05-01T04:33:50;1.30;99.90
14252;DHT22;7210;51.502;10.722;2023-05-01T04:36:18;1.30;99.90
14252;DHT22;7210;51.502;10.722;2023-05-01T04:38:46;1.30;99.90
14252;DHT22;7210;51.502;10.722;2023-05-01T04:41:13;1.40;99.90
14252;DHT22;7210;51.502;10.722;2023-05-01T04:43:41;1.40;99.90
14252;DHT22;7210;51.502;10.722;2023-05-01T04:46:08;1.40;99.90
14252;DHT22;7210;51.502;10.722;2023-05-01T04:48:35;1.40;99.90
14252;DHT22;7210;51.502;10.722;2023-05-01T04:51:04;1.50;99.90
14252;DHT22;7210;51.502;10.722;2023-05-01T04:53:33;1.50;99.90
14252;DHT22;7210;51.502;10.722;2023-05-01T04:56:02;1.70;99.90
14252;DHT22;7210;51.502;10.722;2023-05-01T04:58:31;1.70;99.90
14252;DHT22;7210;51.502;10.722;2023-05-01T05:01:05;1.90;99.90
14252;DHT22;7210;51.502;10.722;2023-05-01T05:03:32;2.10;99.90
14252;DHT22;7210;51.502;10.722;2023-05-01T05:06:00;2.20;99.90
14252;DHT22;7210;51.502;10.722;2023-05-01T05:08:28;2.20;99.90
14252;DHT22;7210;51.502;10.722;2023-05-01T05:11:06;2.30;99.90
14252;DHT22;7210;51.502;10.722;2023-05-01T05:13:56;2.30;99.90
14252;DHT22;7210;51.502;10.722;2023-05-01T05:16:23;2.30;99.90
14252;DHT22;7210;51.502;10.722;2023-05-01T05:18:51;2.40;99.90
14252;DHT22;7210;51.502;10.722;2023-05-01T05:21:21;2.40;99.90
14252;DHT22;7210;51.502;10.722;2023-05-01T05:23:55;2.50;99.90
14252;DHT22;7210;51.502;10.722;2023-05-01T05:26:23;2.60;99.90
14252;DHT22;7210;51.502;10.722;2023-05-01T05:28:52;2.80;99.90
14252;DHT22;7210;51.502;10.722;2023-05-01T05:31:20;2.90;99.90
14252;DHT22;7210;51.502;10.722;2023-05-01T05:33:50;3.00;99.90
14252;DHT22;7210;51.502;10.722;2023-05-01T05:36:17;3.10;99.90
14252;DHT22;7210;51.502;10.722;2023-05-01T05:38:44;3.20;99.90
14252;DHT22;7210;51.502;10.722;2023-05-01T05:41:17;3.30;99.90
14252;DHT22;7210;51.502;10.722;2023-05-01T05:43:45;3.40;99.90
14252;DHT22;7210;51.502;10.722;2023-05-01T05:46:12;3.50;99.90
14252;DHT22;7210;51.502;10.722;2023-05-01T05:48:41;3.70;99.90
14252;DHT22;7210;51.502;10.722;2023-05-01T05:51:12;3.70;99.90
14252;DHT22;7210;51.502;10.722;2023-05-01T05:53:40;3.80;99.90
14252;DHT22;7210;51.502;10.722;2023-05-01T05:56:07;3.90;99.90
14252;DHT22;7210;51.502;10.722;2023-05-01T05:58:36;4.00;99.90
14252;DHT22;7210;51.502;10.722;2023-05-01T06:01:03;4.10;99.90
14252;DHT22;7210;51.502;10.722;2023-05-01T06:03:36;4.30;99.90
14252;DHT22;7210;51.502;10.722;2023-05-01T06:06:04;4.50;99.90
14252;DHT22;7210;51.502;10.722;2023-05-01T06:08:31;4.70;99.90
14252;DHT22;7210;51.502;10.722;2023-05-01T06:11:00;4.90;99.90
14252;DHT22;7210;51.502;10.722;2023-05-01T06:13:27;5.00;99.90
14252;DHT22;7210;51.502;10.722;2023-05-01T06:15:55;5.10;99.90
14252;DHT22;7210;51.502;10.722;2023-05-01T06:18:23;5.20;99.90
14252;DHT22;7210;51.502;10.722;2023-05-01T06:20:50;5.40;99.90
14252;DHT22;7210;51.502;10.722;2023-05-01T06:23:19;5.50;99.90
14252;DHT22;7210;51.502;10.722;2023-05-01T06:25:57;5.60;99.90
14252;DHT22;7210;51.502;10.722;2023-05-01T06:28:24;5.80;99.90
14252;DHT22;7210;51.502;10.722;2023-05-01T06:30:52;6.00;99.90
14252;DHT22;7210;51.502;10.722;2023-05-01T06:33:21;6.20;99.90
14252;DHT22;7210;51.502;10.722;2023-05-01T06:36:00;6.40;99.90
14252;DHT22;7210;51.502;10.722;2023-05-01T06:38:27;6.50;99.90
14252;DHT22;7210;51.502;10.722;2023-05-01T06:40:54;6.70;99.90
14252;DHT22;7210;51.502;10.722;2023-05-01T06:43:21;6.90;99.90
14252;DHT22;7210;51.502;10.722;2023-05-01T06:45:52;7.10;99.90
14252;DHT22;7210;51.502;10.722;2023-05-01T06:48:21;7.30;99.90
14252;DHT22;7210;51.502;10.722;2023-05-01T06:50:48;7.50;99.90
14252;DHT22;7210;51.502;10.722;2023-05-01T06:53:15;7.60;99.90
14252;DHT22;7210;51.502;10.722;2023-05-01T06:55:43;7.70;99.90
14252;DHT22;7210;51.502;10.722;2023-05-01T06:58:10;7.90;99.90
14252;DHT22;7210;51.502;10.722;2023-05-01T07:00:37;8.00;99.90
14252;DHT22;7210;51.502;10.722;2023-05-01T07:03:04;8.20;99.90
14252;DHT22;7210;51.502;10.722;2023-05-01T07:05:33;8.50;99.90
14252;DHT22;7210;51.502;10.722;2023-05-01T07:08:00;8.60;99.90
14252;DHT22;7210;51.502;10.722;2023-05-01T07:10:27;8.90;99.90
14252;DHT22;7210;51.502;10.722;2023-05-01T07:12:55;9.00;99.90
14252;DHT22;7210;51.502;10.722;2023-05-01T07:15:22;9.10;99.90
14252;DHT22;7210;51.502;10.722;2023-05-01T07:17:49;9.20;1.00
14252;DHT22;7210;51.502;10.722;2023-05-01T07:20:16;9.40;99.90
14252;DHT22;7210;51.502;10.722;2023-05-01T07:22:45;9.40;99.90
14252;DHT22;7210;51.502;10.722;2023-05-01T07:25:12;9.60;99.90
14252;DHT22;7210;51.502;10.722;2023-05-01T07:27:40;9.80;99.90
14252;DHT22;7210;51.502;10.722;2023-05-01T07:30:08;9.80;99.90
14252;DHT22;7210;51.502;10.722;2023-05-01T07:32:36;9.90;1.00
14252;DHT22;7210;51.502;10.722;2023-05-01T07:35:04;10.00;1.00
14252;DHT22;7210;51.502;10.722;2023-05-01T07:37:31;10.00;1.00
14252;DHT22;7210;51.502;10.722;2023-05-01T07:40:00;10.20;1.00
14252;DHT22;7210;51.502;10.722;2023-05-01T07:42:28;10.30;1.00
14252;DHT22;7210;51.502;10.722;2023-05-01T07:44:55;10.40;1.00
14252;DHT22;7210;51.502;10.722;2023-05-01T07:47:22;10.50;1.00
14252;DHT22;7210;51.502;10.722;2023-05-01T07:49:50;10.70;1.00
14252;DHT22;7210;51.502;10.722;2023-05-01T07:52:17;10.80;1.00
14252;DHT22;7210;51.502;10.722;2023-05-01T07:54:48;11.00;1.00
14252;DHT22;7210;51.502;10.722;2023-05-01T07:57:18;11.00;1.00
14252;DHT22;7210;51.502;10.722;2023-05-01T07:59:45;11.20;1.00
14252;DHT22;7210;51.502;10.722;2023-05-01T08:02:12;11.40;1.00
14252;DHT22;7210;51.502;10.722;2023-05-01T08:04:39;11.50;1.00
14252;DHT22;7210;51.502;10.722;2023-05-01T08:07:07;11.60;1.00
14252;DHT22;7210;51.502;10.722;2023-05-01T08:09:34;11.80;1.00
14252;DHT22;7210;51.502;10.722;2023-05-01T08:12:01;11.90;1.00
14252;DHT22;7210;51.502;10.722;2023-05-01T08:14:30;11.90;1.00
14252;DHT22;7210;51.502;10.722;2023-05-01T08:16:58;12.10;1.00
14252;DHT22;7210;51.502;10.722;2023-05-01T08:19:25;12.10;1.00
14252;DHT22;7210;51.502;10.722;2023-05-01T08:21:53;12.30;1.00
14252;DHT22;7210;51.502;10.722;2023-05-01T08:24:20;12.30;1.00
14252;DHT22;7210;51.502;10.722;2023-05-01T08:26:47;12.50;1.00
14252;DHT22;7210;51.502;10.722;2023-05-01T08:29:14;12.70;1.00
14252;DHT22;7210;51.502;10.722;2023-05-01T08:31:43;12.90;1.00
14252;DHT22;7210;51.502;10.722;2023-05-01T08:34:10;13.00;1.00
14252;DHT22;7210;51.502;10.722;2023-05-01T08:36:37;13.20;1.00
14252;DHT22;7210;51.502;10.722;2023-05-01T08:39:06;13.40;1.00
14252;DHT22;7210;51.502;10.722;2023-05-01T08:41:34;13.40;1.00
14252;DHT22;7210;51.502;10.722;2023-05-01T08:44:07;13.40;1.00
14252;DHT22;7210;51.502;10.722;2023-05-01T08:46:45;13.40;1.00
14252;DHT22;7210;51.502;10.722;2023-05-01T08:49:15;13.40;1.00
14252;DHT22;7210;51.502;10.722;2023-05-01T08:51:44;13.50;1.00
14252;DHT22;7210;51.502;10.722;2023-05-01T08:54:19;13.60;1.00
14252;DHT22;7210;51.502;10.722;2023-05-01T08:56:47;13.80;1.00
14252;DHT22;7210;51.502;10.722;2023-05-01T08:59:17;13.80;1.00
14252;DHT22;7210;51.502;10.722;2023-05-01T09:01:47;13.90;1.00
14252;DHT22;7210;51.502;10.722;2023-05-01T09:04:15;13.90;1.00
14252;DHT22;7210;51.502;10.722;2023-05-01T09:06:43;14.00;1.00
14252;DHT22;7210;51.502;10.722;2023-05-01T09:09:10;14.10;1.00
14252;DHT22;7210;51.502;10.722;2023-05-01T09:11:38;14.20;1.00
14252;DHT22;7210;51.502;10.722;2023-05-01T09:14:05;14.40;1.00
14252;DHT22;7210;51.502;10.722;2023-05-01T09:16:33;14.50;1.00
14252;DHT22;7210;51.502;10.722;2023-05-01T09:19:02;14.60;1.00
14252;DHT22;7210;51.502;10.722;2023-05-01T09:21:29;14.80;1.00
14252;DHT22;7210;51.502;10.722;2023-05-01T09:23:57;14.90;1.00
14252;DHT22;7210;51.502;10.722;2023-05-01T09:26:24;15.10;1.00
14252;DHT22;7210;51.502;10.722;2023-05-01T09:28:53;15.20;1.00
14252;DHT22;7210;51.502;10.722;2023-05-01T09:31:23;15.40;1.00
14252;DHT22;7210;51.502;10.722;2023-05-01T09:33:55;15.50;1.00
14252;DHT22;7210;51.502;10.722;2023-05-01T09:36:26;15.70;1.00
14252;DHT22;7210;51.502;10.722;2023-05-01T09:39:01;15.70;1.00
14252;DHT22;7210;51.502;10.722;2023-05-01T09:41:29;15.90;1.00
14252;DHT22;7210;51.502;10.722;2023-05-01T09:43:58;16.00;1.00
14252;DHT22;7210;51.502;10.722;2023-05-01T09:46:26;16.20;1.00
14252;DHT22;7210;51.502;10.722;2023-05-01T09:48:54;16.50;1.00
14252;DHT22;7210;51.502;10.722;2023-05-01T09:51:25;16.60;1.00
14252;DHT22;7210;51.502;10.722;2023-05-01T09:53:54;16.70;1.00
14252;DHT22;7210;51.502;10.722;2023-05-01T09:56:24;16.60;1.00
14252;DHT22;7210;51.502;10.722;2023-05-01T09:58:53;16.60;1.00
14252;DHT22;7210;51.502;10.722;2023-05-01T10:01:37;16.80;1.00
14252;DHT22;7210;51.502;10.722;2023-05-01T10:04:05;16.80;1.00
14252;DHT22;7210;51.502;10.722;2023-05-01T10:06:34;16.70;1.00
14252;DHT22;7210;51.502;10.722;2023-05-01T10:09:02;16.70;1.00
14252;DHT22;7210;51.502;10.722;2023-05-01T10:11:46;16.80;1.00
14252;DHT22;7210;51.502;10.722;2023-05-01T10:14:14;16.80;1.00
14252;DHT22;7210;51.502;10.722;2023-05-01T10:16:41;16.90;1.00
14252;DHT22;7210;51.502;10.722;2023-05-01T10:19:09;17.00;1.00
14252;DHT22;7210;51.502;10.722;2023-05-01T10:21:38;17.10;1.00
14252;DHT22;7210;51.502;10.722;2023-05-01T10:24:05;17.20;1.00
14252;DHT22;7210;51.502;10.722;2023-05-01T10:26:35;17.20;1.00
14252;DHT22;7210;51.502;10.722;2023-05-01T10:29:03;17.30;1.00
14252;DHT22;7210;51.502;10.722;2023-05-01T10:31:30;17.40;1.00
14252;DHT22;7210;51.502;10.722;2023-05-01T10:33:58;17.50;1.00
14252;DHT22;7210;51.502;10.722;2023-05-01T10:36:31;17.70;1.00
14252;DHT22;7210;51.502;10.722;2023-05-01T10:39:05;17.90;1.00
14252;DHT22;7210;51.502;10.722;2023-05-01T10:42:04;18.10;1.00
14252;DHT22;7210;51.502;10.722;2023-05-01T10:44:37;18.10;1.00
14252;DHT22;7210;51.502;10.722;2023-05-01T10:47:45;18.00;1.00
14252;DHT22;7210;51.502;10.722;2023-05-01T10:50:14;17.90;1.00
14252;DHT22;7210;51.502;10.722;2023-05-01T10:53:14;18.00;1.00
14252;DHT22;7210;51.502;10.722;2023-05-01T10:55:44;18.20;1.00
14252;DHT22;7210;51.502;10.722;2023-05-01T11:01:31;18.70;1.00
14252;DHT22;7210;51.502;10.722;2023-05-01T11:04:02;18.80;1.00
14252;DHT22;7210;51.502;10.722;2023-05-01T11:06:33;18.90;1.00
14252;DHT22;7210;51.502;10.722;2023-05-01T11:09:34;19.00;1.00
14252;DHT22;7210;51.502;10.722;2023-05-01T11:12:05;19.30;1.00
14252;DHT22;7210;51.502;10.722;2023-05-01T11:15:00;19.50;1.00
14252;DHT22;7210;51.502;10.722;2023-05-01T11:17:45;19.40;1.00
14252;DHT22;7210;51.502;10.722;2023-05-01T11:20:47;19.80;1.00
14252;DHT22;7210;51.502;10.722;2023-05-01T11:23:19;19.70;1.00
14252;DHT22;7210;51.502;10.722;2023-05-01T11:25:47;19.70;1.00
14252;DHT22;7210;51.502;10.722;2023-05-01T11:28:20;19.80;1.00
14252;DHT22;7210;51.502;10.722;2023-05-01T11:30:47;20.00;1.00
14252;DHT22;7210;51.502;10.722;2023-05-01T11:33:21;20.10;1.00
14252;DHT22;7210;51.502;10.722;2023-05-01T11:35:57;20.30;1.00
14252;DHT22;7210;51.502;10.722;2023-05-01T11:38:26;20.30;1.00
14252;DHT22;7210;51.502;10.722;2023-05-01T11:40:55;19.90;1.00
14252;DHT22;7210;51.502;10.722;2023-05-01T11:43:26;20.00;1.00
14252;DHT22;7210;51.502;10.722;2023-05-01T11:45:53;20.20;1.00
14252;DHT22;7210;51.502;10.722;2023-05-01T11:48:27;20.40;1.00
14252;DHT22;7210;51.502;10.722;2023-05-01T11:50:56;20.40;1.00
14252;DHT22;7210;51.502;10.722;2023-05-01T11:53:23;20.30;1.00
14252;DHT22;7210;51.502;10.722;2023-05-01T11:55:50;20.40;1.00
14252;DHT22;7210;51.502;10.722;2023-05-01T11:58:31;20.60;1.00
14252;DHT22;7210;51.502;10.722;2023-05-01T12:00:59;20.80;1.00
14252;DHT22;7210;51.502;10.722;2023-05-01T12:03:26;21.00;1.00
14252;DHT22;7210;51.502;10.722;2023-05-01T12:05:54;21.00;1.00
14252;DHT22;7210;51.502;10.722;2023-05-01T12:08:21;21.00;1.00
14252;DHT22;7210;51.502;10.722;2023-05-01T12:10:52;21.00;1.00
14252;DHT22;7210;51.502;10.722;2023-05-01T12:13:21;21.10;1.00
14252;DHT22;7210;51.502;10.722;2023-05-01T12:15:51;21.20;1.00
14252;DHT22;7210;51.502;10.722;2023-05-01T12:18:20;21.20;1.00
14252;DHT22;7210;51.502;10.722;2023-05-01T12:20:54;21.40;1.00
14252;DHT22;7210;51.502;10.722;2023-05-01T12:23:30;21.60;1.00
14252;DHT22;7210;51.502;10.722;2023-05-01T12:25:59;21.60;1.00
14252;DHT22;7210;51.502;10.722;2023-05-01T12:28:29;21.60;1.00
14252;DHT22;7210;51.502;10.722;2023-05-01T12:31:02;21.70;1.00
14252;DHT22;7210;51.502;10.722;2023-05-01T12:33:29;22.00;1.00
14252;DHT22;7210;51.502;10.722;2023-05-01T12:36:07;22.10;1.00
14252;DHT22;7210;51.502;10.722;2023-05-01T12:38:37;21.70;1.00
14252;DHT22;7210;51.502;10.722;2023-05-01T12:41:04;21.70;1.00
14252;DHT22;7210;51.502;10.722;2023-05-01T12:43:35;21.80;1.00
14252;DHT22;7210;51.502;10.722;2023-05-01T12:46:05;21.50;1.00
14252;DHT22;7210;51.502;10.722;2023-05-01T12:48:40;21.20;1.00
14252;DHT22;7210;51.502;10.722;2023-05-01T12:51:07;21.40;1.00
14252;DHT22;7210;51.502;10.722;2023-05-01T12:53:42;21.60;1.00
14252;DHT22;7210;51.502;10.722;2023-05-01T12:56:20;21.60;1.00
14252;DHT22;7210;51.502;10.722;2023-05-01T12:58:49;21.60;1.00
14252;DHT22;7210;51.502;10.722;2023-05-01T13:01:26;21.40;1.00
14252;DHT22;7210;51.502;10.722;2023-05-01T13:03:54;21.20;1.00
14252;DHT22;7210;51.502;10.722;2023-05-01T13:06:30;20.90;1.00
14252;DHT22;7210;51.502;10.722;2023-05-01T13:09:07;21.30;1.00
14252;DHT22;7210;51.502;10.722;2023-05-01T13:11:35;21.70;1.00
14252;DHT22;7210;51.502;10.722;2023-05-01T13:14:07;21.60;1.00
14252;DHT22;7210;51.502;10.722;2023-05-01T13:16:45;21.60;1.00
14252;DHT22;7210;51.502;10.722;2023-05-01T13:19:13;21.50;1.00
14252;DHT22;7210;51.502;10.722;2023-05-01T13:21:50;21.40;1.00
14252;DHT22;7210;51.502;10.722;2023-05-01T13:24:17;21.60;1.00
14252;DHT22;7210;51.502;10.722;2023-05-01T13:26:45;21.60;1.00
14252;DHT22;7210;51.502;10.722;2023-05-01T13:29:13;21.50;1.00
14252;DHT22;7210;51.502;10.722;2023-05-01T13:31:44;21.50;1.00
14252;DHT22;7210;51.502;10.722;2023-05-01T13:34:16;21.40;1.00
14252;DHT22;7210;51.502;10.722;2023-05-01T13:36:47;21.50;1.00
14252;DHT22;7210;51.502;10.722;2023-05-01T13:39:18;21.60;1.00
14252;DHT22;7210;51.502;10.722;2023-05-01T13:41:45;21.60;1.00
14252;DHT22;7210;51.502;10.722;2023-05-01T13:44:19;21.80;1.00
14252;DHT22;7210;51.502;10.722;2023-05-01T13:46:49;21.80;1.00
14252;DHT22;7210;51.502;10.722;2023-05-01T13:49:19;21.40;1.00
14252;DHT22;7210;51.502;10.722;2023-05-01T13:51:48;21.40;1.00
14252;DHT22;7210;51.502;10.722;2023-05-01T13:54:16;21.40;1.00
14252;DHT22;7210;51.502;10.722;2023-05-01T13:56:44;21.60;1.00
14252;DHT22;7210;51.502;10.722;2023-05-01T13:59:12;21.50;1.00
14252;DHT22;7210;51.502;10.722;2023-05-01T14:01:41;21.60;1.00
14252;DHT22;7210;51.502;10.722;2023-05-01T14:04:16;21.70;1.00
14252;DHT22;7210;51.502;10.722;2023-05-01T14:06:46;21.60;1.00
14252;DHT22;7210;51.502;10.722;2023-05-01T14:09:16;21.20;1.00
14252;DHT22;7210;51.502;10.722;2023-05-01T14:11:44;21.30;1.00
14252;DHT22;7210;51.502;10.722;2023-05-01T14:14:15;21.00;1.00
14252;DHT22;7210;51.502;10.722;2023-05-01T14:16:46;20.70;1.00
14252;DHT22;7210;51.502;10.722;2023-05-01T14:19:20;20.40;1.00
14252;DHT22;7210;51.502;10.722;2023-05-01T14:21:47;20.40;1.00
14252;DHT22;7210;51.502;10.722;2023-05-01T14:24:14;20.40;1.00
14252;DHT22;7210;51.502;10.722;2023-05-01T14:26:43;20.40;1.00
14252;DHT22;7210;51.502;10.722;2023-05-01T14:29:20;20.50;1.00
14252;DHT22;7210;51.502;10.722;2023-05-01T14:31:52;20.40;1.00
14252;DHT22;7210;51.502;10.722;2023-05-01T14:34:22;20.60;1.00
14252;DHT22;7210;51.502;10.722;2023-05-01T14:36:50;20.70;1.00
14252;DHT22;7210;51.502;10.722;2023-05-01T14:39:20;20.30;1.00
14252;DHT22;7210;51.502;10.722;2023-05-01T14:41:48;20.00;1.00
14252;DHT22;7210;51.502;10.722;2023-05-01T14:44:18;20.00;1.00
14252;DHT22;7210;51.502;10.722;2023-05-01T14:46:48;20.10;1.00
14252;DHT22;7210;51.502;10.722;2023-05-01T14:49:21;19.90;1.00
14252;DHT22;7210;51.502;10.722;2023-05-01T14:51:51;19.90;1.00
14252;DHT22;7210;51.502;10.722;2023-05-01T14:54:19;19.80;1.00
14252;DHT22;7210;51.502;10.722;2023-05-01T14:56:47;19.70;1.00
14252;DHT22;7210;51.502;10.722;2023-05-01T14:59:15;19.70;1.00
14252;DHT22;7210;51.502;10.722;2023-05-01T15:01:42;19.70;1.00
14252;DHT22;7210;51.502;10.722;2023-05-01T15:04:09;19.70;1.00
14252;DHT22;7210;51.502;10.722;2023-05-01T15:06:38;19.70;1.00
14252;DHT22;7210;51.502;10.722;2023-05-01T15:09:06;19.50;1.00
14252;DHT22;7210;51.502;10.722;2023-05-01T15:11:33;19.50;1.00
14252;DHT22;7210;51.502;10.722;2023-05-01T15:14:00;19.60;1.00
14252;DHT22;7210;51.502;10.722;2023-05-01T15:16:28;19.60;1.00
14252;DHT22;7210;51.502;10.722;2023-05-01T15:18:57;19.50;1.00
14252;DHT22;7210;51.502;10.722;2023-05-01T15:21:24;19.30;1.00
14252;DHT22;7210;51.502;10.722;2023-05-01T15:23:52;19.30;1.00
14252;DHT22;7210;51.502;10.722;2023-05-01T15:26:20;19.30;1.00
14252;DHT22;7210;51.502;10.722;2023-05-01T15:28:47;19.30;1.00
14252;DHT22;7210;51.502;10.722;2023-05-01T15:31:14;19.30;1.00
14252;DHT22;7210;51.502;10.722;2023-05-01T15:33:43;19.20;1.00
14252;DHT22;7210;51.502;10.722;2023-05-01T15:36:11;19.20;1.00
14252;DHT22;7210;51.502;10.722;2023-05-01T15:38:38;19.20;1.00
14252;DHT22;7210;51.502;10.722;2023-05-01T15:41:07;19.20;1.00
14252;DHT22;7210;51.502;10.722;2023-05-01T15:43:34;19.10;1.00
14252;DHT22;7210;51.502;10.722;2023-05-01T15:46:01;19.00;1.00
14252;DHT22;7210;51.502;10.722;2023-05-01T15:48:30;18.90;1.00
14252;DHT22;7210;51.502;10.722;2023-05-01T15:50:58;18.90;1.00
14252;DHT22;7210;51.502;10.722;2023-05-01T15:53:25;19.00;1.00
14252;DHT22;7210;51.502;10.722;2023-05-01T15:55:55;18.90;1.00
14252;DHT22;7210;51.502;10.722;2023-05-01T15:58:24;18.90;1.00
14252;DHT22;7210;51.502;10.722;2023-05-01T16:00:51;19.00;1.00
14252;DHT22;7210;51.502;10.722;2023-05-01T16:03:18;19.10;1.00
14252;DHT22;7210;51.502;10.722;2023-05-01T16:05:46;19.00;1.00
14252;DHT22;7210;51.502;10.722;2023-05-01T16:08:13;19.00;1.00
14252;DHT22;7210;51.502;10.722;2023-05-01T16:10:41;18.90;1.00
14252;DHT22;7210;51.502;10.722;2023-05-01T16:13:08;19.00;1.00
14252;DHT22;7210;51.502;10.722;2023-05-01T16:15:37;19.00;1.00